Strona główna
METAR-TAF:

METAR-TAF

Lotnisko :

Milton, Massachusetts, Stany Zjednoczone

Szerokość geograficzna: 42-12-44N, Długość geograficzna: 071-06-53W, wysokość: 192 m

Aktualna obserwacja pogody

Raport powstał 1 godzina i 8 minut temu, godzina 21:51 UTC
Wiatr 7 kt od wschodnio-północny wschód
Temperatura 7°C
Wilgotność 66%
Ciśnienie 1015 hPa

METAR: KMQE 042151Z AUTO 06007KT 07/01 A2998 RMK AO1 SLP166 T00670006

czas: 18:59 (22:59 UTC)


TAF: brakujący

Obserwacja i prognoza pogody dla ponad 4000 lotnisk (raport METAR i TAF).

Dostępne stacje oznaczono żółtymi i czerwonymi punktami na mapie.

Najedź kursorem aby zobaczyć nazwę stacji.

Kliknij aby zobaczyć obserwacje i prognozy pogody.

Aby zmienić mapę: kliknij na zielony przycisk z czarnym krzyżykiem, aby powiększyć; na zielony przycisk z myślnikiem, aby pomniejszyć; na zielone strzałki, aby przejść do map sąsiednich.


METAR-TAF: